Chichester, New Hampshire
Current Conditions -  °F | °C
As of 8:51 PM on Monday 22 Dec 2014 (Local Time) from KCON Reporting Station
Overcast Overcast  
Wind Chill: 30°   Ceiling: 1100
Heat Index: 34°   Visibility: 10mi
Dew Point: 32°   Wind: 5mph
Humidity: 92%   Direction: 20°NNE
Pressure: 30.33"   Gusts: NA
Location:  43.26°N, 71.4°W
Report Text: KCON 230151Z AUTO 02004KT 10SM OVC011 01/00 A3033 RMK AO2 SLP276 T00110000
Loading
Personal Weather Stations






























Interactive Weather Map New forecast layout! Learn more

10-Day Weather Forecast

Advertisements
Track Severe Weather on mobile